sensor_id;sensor_type;location;lat;lon;timestamp;P1;durP1;ratioP1;P2;durP2;ratioP2
5690;SDS011;2870;42.680;23.364;2022-12-07T00:01:05;28.67;;;16.53;;
5690;SDS011;2870;42.680;23.364;2022-12-07T00:03:33;34.73;;;17.50;;
5690;SDS011;2870;42.680;23.364;2022-12-07T00:06:01;26.17;;;16.37;;
5690;SDS011;2870;42.680;23.364;2022-12-07T00:08:30;32.33;;;17.27;;
5690;SDS011;2870;42.680;23.364;2022-12-07T00:11:00;27.27;;;16.57;;
5690;SDS011;2870;42.680;23.364;2022-12-07T00:13:27;28.97;;;16.40;;
5690;SDS011;2870;42.680;23.364;2022-12-07T00:15:53;30.00;;;16.47;;
5690;SDS011;2870;42.680;23.364;2022-12-07T00:18:20;28.53;;;15.53;;
5690;SDS011;2870;42.680;23.364;2022-12-07T00:20:47;29.97;;;17.77;;
5690;SDS011;2870;42.680;23.364;2022-12-07T00:23:14;39.17;;;16.67;;
5690;SDS011;2870;42.680;23.364;2022-12-07T00:25:42;33.43;;;15.83;;
5690;SDS011;2870;42.680;23.364;2022-12-07T00:28:09;27.63;;;16.73;;
5690;SDS011;2870;42.680;23.364;2022-12-07T00:30:35;26.30;;;15.23;;
5690;SDS011;2870;42.680;23.364;2022-12-07T00:33:03;33.50;;;17.90;;
5690;SDS011;2870;42.680;23.364;2022-12-07T00:35:29;35.70;;;17.23;;
5690;SDS011;2870;42.680;23.364;2022-12-07T00:37:56;33.53;;;16.73;;
5690;SDS011;2870;42.680;23.364;2022-12-07T00:40:23;35.30;;;17.20;;
5690;SDS011;2870;42.680;23.364;2022-12-07T00:42:51;31.10;;;15.93;;
5690;SDS011;2870;42.680;23.364;2022-12-07T00:45:18;26.00;;;15.00;;
5690;SDS011;2870;42.680;23.364;2022-12-07T00:47:44;33.87;;;16.27;;
5690;SDS011;2870;42.680;23.364;2022-12-07T00:50:11;25.67;;;15.40;;
5690;SDS011;2870;42.680;23.364;2022-12-07T00:52:38;29.80;;;16.17;;
5690;SDS011;2870;42.680;23.364;2022-12-07T00:55:05;39.97;;;18.90;;
5690;SDS011;2870;42.680;23.364;2022-12-07T00:57:32;30.67;;;17.13;;
5690;SDS011;2870;42.680;23.364;2022-12-07T01:00:00;31.63;;;16.20;;
5690;SDS011;2870;42.680;23.364;2022-12-07T01:02:27;24.40;;;15.27;;
5690;SDS011;2870;42.680;23.364;2022-12-07T01:04:54;31.03;;;16.10;;
5690;SDS011;2870;42.680;23.364;2022-12-07T01:07:21;29.60;;;16.07;;
5690;SDS011;2870;42.680;23.364;2022-12-07T01:09:47;28.57;;;17.40;;
5690;SDS011;2870;42.680;23.364;2022-12-07T01:12:14;30.63;;;16.60;;
5690;SDS011;2870;42.680;23.364;2022-12-07T01:14:41;31.97;;;16.07;;
5690;SDS011;2870;42.680;23.364;2022-12-07T01:17:09;36.70;;;17.77;;
5690;SDS011;2870;42.680;23.364;2022-12-07T01:19:36;25.00;;;15.53;;
5690;SDS011;2870;42.680;23.364;2022-12-07T01:22:03;26.97;;;17.20;;
5690;SDS011;2870;42.680;23.364;2022-12-07T01:24:30;34.40;;;17.63;;
5690;SDS011;2870;42.680;23.364;2022-12-07T01:26:56;26.10;;;16.67;;
5690;SDS011;2870;42.680;23.364;2022-12-07T01:29:23;29.47;;;15.50;;
5690;SDS011;2870;42.680;23.364;2022-12-07T01:31:50;39.13;;;17.07;;
5690;SDS011;2870;42.680;23.364;2022-12-07T01:34:18;33.00;;;18.80;;
5690;SDS011;2870;42.680;23.364;2022-12-07T01:36:45;31.60;;;17.97;;
5690;SDS011;2870;42.680;23.364;2022-12-07T01:39:12;34.53;;;17.60;;
5690;SDS011;2870;42.680;23.364;2022-12-07T01:41:39;30.40;;;17.87;;
5690;SDS011;2870;42.680;23.364;2022-12-07T01:44:13;30.67;;;16.07;;
5690;SDS011;2870;42.680;23.364;2022-12-07T01:46:42;32.43;;;17.00;;
5690;SDS011;2870;42.680;23.364;2022-12-07T01:49:12;33.77;;;18.70;;
5690;SDS011;2870;42.680;23.364;2022-12-07T01:51:45;31.30;;;18.83;;
5690;SDS011;2870;42.680;23.364;2022-12-07T01:54:14;31.67;;;17.13;;
5690;SDS011;2870;42.680;23.364;2022-12-07T01:56:43;31.63;;;18.23;;
5690;SDS011;2870;42.680;23.364;2022-12-07T01:59:15;39.37;;;18.00;;
5690;SDS011;2870;42.680;23.364;2022-12-07T02:01:44;32.43;;;17.77;;
5690;SDS011;2870;42.680;23.364;2022-12-07T02:04:11;34.57;;;18.10;;
5690;SDS011;2870;42.680;23.364;2022-12-07T02:06:39;32.50;;;19.30;;
5690;SDS011;2870;42.680;23.364;2022-12-07T02:09:09;38.50;;;17.33;;
5690;SDS011;2870;42.680;23.364;2022-12-07T02:11:36;37.63;;;18.90;;
5690;SDS011;2870;42.680;23.364;2022-12-07T02:14:03;31.00;;;18.20;;
5690;SDS011;2870;42.680;23.364;2022-12-07T02:16:32;26.37;;;17.07;;
5690;SDS011;2870;42.680;23.364;2022-12-07T02:22:06;33.73;;;17.57;;
5690;SDS011;2870;42.680;23.364;2022-12-07T02:24:52;30.73;;;17.73;;
5690;SDS011;2870;42.680;23.364;2022-12-07T02:27:28;31.70;;;17.60;;
5690;SDS011;2870;42.680;23.364;2022-12-07T02:30:06;28.97;;;17.50;;
5690;SDS011;2870;42.680;23.364;2022-12-07T02:32:38;39.77;;;18.63;;
5690;SDS011;2870;42.680;23.364;2022-12-07T02:35:11;39.10;;;17.80;;
5690;SDS011;2870;42.680;23.364;2022-12-07T02:37:45;36.40;;;18.00;;
5690;SDS011;2870;42.680;23.364;2022-12-07T02:40:22;35.80;;;19.10;;
5690;SDS011;2870;42.680;23.364;2022-12-07T02:42:55;28.50;;;17.77;;
5690;SDS011;2870;42.680;23.364;2022-12-07T02:45:29;33.87;;;18.73;;
5690;SDS011;2870;42.680;23.364;2022-12-07T02:47:58;31.10;;;18.53;;
5690;SDS011;2870;42.680;23.364;2022-12-07T02:50:27;30.40;;;16.97;;
5690;SDS011;2870;42.680;23.364;2022-12-07T02:52:54;33.20;;;18.27;;
5690;SDS011;2870;42.680;23.364;2022-12-07T02:55:22;43.90;;;17.67;;
5690;SDS011;2870;42.680;23.364;2022-12-07T02:57:59;29.30;;;16.57;;
5690;SDS011;2870;42.680;23.364;2022-12-07T03:00:37;33.00;;;17.10;;
5690;SDS011;2870;42.680;23.364;2022-12-07T03:03:11;32.30;;;16.47;;
5690;SDS011;2870;42.680;23.364;2022-12-07T03:05:50;28.00;;;16.50;;
5690;SDS011;2870;42.680;23.364;2022-12-07T03:08:28;32.20;;;17.03;;
5690;SDS011;2870;42.680;23.364;2022-12-07T03:11:03;39.43;;;17.60;;
5690;SDS011;2870;42.680;23.364;2022-12-07T03:13:33;28.50;;;16.30;;
5690;SDS011;2870;42.680;23.364;2022-12-07T03:16:08;32.27;;;16.97;;
5690;SDS011;2870;42.680;23.364;2022-12-07T03:18:39;32.00;;;18.13;;
5690;SDS011;2870;42.680;23.364;2022-12-07T03:21:16;47.00;;;17.87;;
5690;SDS011;2870;42.680;23.364;2022-12-07T03:23:48;30.30;;;17.43;;
5690;SDS011;2870;42.680;23.364;2022-12-07T03:26:19;33.07;;;18.17;;
5690;SDS011;2870;42.680;23.364;2022-12-07T03:28:51;34.57;;;18.67;;
5690;SDS011;2870;42.680;23.364;2022-12-07T03:31:23;39.40;;;18.97;;
5690;SDS011;2870;42.680;23.364;2022-12-07T03:33:56;34.60;;;19.63;;
5690;SDS011;2870;42.680;23.364;2022-12-07T03:36:29;32.03;;;18.63;;
5690;SDS011;2870;42.680;23.364;2022-12-07T03:39:01;41.77;;;19.00;;
5690;SDS011;2870;42.680;23.364;2022-12-07T03:41:33;32.47;;;18.60;;
5690;SDS011;2870;42.680;23.364;2022-12-07T03:44:03;35.20;;;18.00;;
5690;SDS011;2870;42.680;23.364;2022-12-07T03:46:35;34.70;;;18.77;;
5690;SDS011;2870;42.680;23.364;2022-12-07T03:49:11;35.23;;;18.77;;
5690;SDS011;2870;42.680;23.364;2022-12-07T03:51:45;45.20;;;18.37;;
5690;SDS011;2870;42.680;23.364;2022-12-07T03:54:17;30.10;;;17.77;;
5690;SDS011;2870;42.680;23.364;2022-12-07T03:56:49;37.10;;;18.13;;
5690;SDS011;2870;42.680;23.364;2022-12-07T03:59:18;36.33;;;18.00;;
5690;SDS011;2870;42.680;23.364;2022-12-07T04:01:52;33.17;;;17.87;;
5690;SDS011;2870;42.680;23.364;2022-12-07T04:04:20;36.37;;;18.27;;
5690;SDS011;2870;42.680;23.364;2022-12-07T04:06:48;32.40;;;18.03;;
5690;SDS011;2870;42.680;23.364;2022-12-07T04:09:15;31.70;;;18.43;;
5690;SDS011;2870;42.680;23.364;2022-12-07T04:11:42;30.43;;;18.53;;
5690;SDS011;2870;42.680;23.364;2022-12-07T04:14:09;32.20;;;19.50;;
5690;SDS011;2870;42.680;23.364;2022-12-07T04:16:45;43.03;;;19.87;;
5690;SDS011;2870;42.680;23.364;2022-12-07T04:19:14;33.23;;;17.87;;
5690;SDS011;2870;42.680;23.364;2022-12-07T04:21:42;32.37;;;18.80;;
5690;SDS011;2870;42.680;23.364;2022-12-07T04:24:09;40.63;;;21.47;;
5690;SDS011;2870;42.680;23.364;2022-12-07T04:26:36;38.63;;;19.63;;
5690;SDS011;2870;42.680;23.364;2022-12-07T04:29:03;32.83;;;19.20;;
5690;SDS011;2870;42.680;23.364;2022-12-07T04:31:30;36.93;;;17.83;;
5690;SDS011;2870;42.680;23.364;2022-12-07T04:33:57;35.17;;;18.97;;
5690;SDS011;2870;42.680;23.364;2022-12-07T04:36:25;38.07;;;18.50;;
5690;SDS011;2870;42.680;23.364;2022-12-07T04:38:52;43.50;;;19.30;;
5690;SDS011;2870;42.680;23.364;2022-12-07T04:41:21;42.80;;;19.47;;
5690;SDS011;2870;42.680;23.364;2022-12-07T04:43:52;39.60;;;19.47;;
5690;SDS011;2870;42.680;23.364;2022-12-07T04:46:20;39.93;;;19.27;;
5690;SDS011;2870;42.680;23.364;2022-12-07T04:48:46;44.40;;;19.33;;
5690;SDS011;2870;42.680;23.364;2022-12-07T04:51:14;42.43;;;19.93;;
5690;SDS011;2870;42.680;23.364;2022-12-07T04:53:46;40.80;;;20.60;;
5690;SDS011;2870;42.680;23.364;2022-12-07T04:56:13;31.93;;;18.33;;
5690;SDS011;2870;42.680;23.364;2022-12-07T04:58:40;43.97;;;19.10;;
5690;SDS011;2870;42.680;23.364;2022-12-07T05:01:07;35.47;;;20.63;;
5690;SDS011;2870;42.680;23.364;2022-12-07T05:03:34;41.00;;;19.00;;
5690;SDS011;2870;42.680;23.364;2022-12-07T05:06:01;39.73;;;19.17;;
5690;SDS011;2870;42.680;23.364;2022-12-07T05:08:28;39.53;;;19.40;;
5690;SDS011;2870;42.680;23.364;2022-12-07T05:10:58;36.87;;;19.30;;
5690;SDS011;2870;42.680;23.364;2022-12-07T05:13:25;34.20;;;20.23;;
5690;SDS011;2870;42.680;23.364;2022-12-07T05:15:51;37.80;;;18.70;;
5690;SDS011;2870;42.680;23.364;2022-12-07T05:18:18;37.60;;;20.33;;
5690;SDS011;2870;42.680;23.364;2022-12-07T05:20:45;43.00;;;18.63;;
5690;SDS011;2870;42.680;23.364;2022-12-07T05:23:12;32.67;;;17.80;;
5690;SDS011;2870;42.680;23.364;2022-12-07T05:25:39;45.77;;;19.47;;
5690;SDS011;2870;42.680;23.364;2022-12-07T05:28:07;31.73;;;19.67;;
5690;SDS011;2870;42.680;23.364;2022-12-07T05:30:34;51.07;;;20.33;;
5690;SDS011;2870;42.680;23.364;2022-12-07T05:33:01;38.63;;;19.10;;
5690;SDS011;2870;42.680;23.364;2022-12-07T05:35:28;38.23;;;18.33;;
5690;SDS011;2870;42.680;23.364;2022-12-07T05:37:55;42.93;;;21.00;;
5690;SDS011;2870;42.680;23.364;2022-12-07T05:40:22;41.17;;;18.20;;
5690;SDS011;2870;42.680;23.364;2022-12-07T05:42:49;36.47;;;19.33;;
5690;SDS011;2870;42.680;23.364;2022-12-07T05:45:17;40.00;;;20.30;;
5690;SDS011;2870;42.680;23.364;2022-12-07T05:47:44;40.00;;;21.37;;
5690;SDS011;2870;42.680;23.364;2022-12-07T05:50:11;43.10;;;20.03;;
5690;SDS011;2870;42.680;23.364;2022-12-07T05:52:38;39.00;;;21.00;;
5690;SDS011;2870;42.680;23.364;2022-12-07T05:55:05;35.33;;;21.83;;
5690;SDS011;2870;42.680;23.364;2022-12-07T05:57:32;43.30;;;21.90;;
5690;SDS011;2870;42.680;23.364;2022-12-07T05:59:59;42.53;;;22.13;;
5690;SDS011;2870;42.680;23.364;2022-12-07T06:02:26;42.60;;;22.90;;
5690;SDS011;2870;42.680;23.364;2022-12-07T06:04:53;42.10;;;20.77;;
5690;SDS011;2870;42.680;23.364;2022-12-07T06:07:20;56.83;;;22.90;;
5690;SDS011;2870;42.680;23.364;2022-12-07T06:09:47;48.57;;;22.70;;
5690;SDS011;2870;42.680;23.364;2022-12-07T06:12:14;48.67;;;21.13;;
5690;SDS011;2870;42.680;23.364;2022-12-07T06:14:58;38.10;;;21.47;;
5690;SDS011;2870;42.680;23.364;2022-12-07T06:17:27;44.00;;;20.93;;
5690;SDS011;2870;42.680;23.364;2022-12-07T06:19:53;46.27;;;23.83;;
5690;SDS011;2870;42.680;23.364;2022-12-07T06:22:20;49.37;;;21.30;;
5690;SDS011;2870;42.680;23.364;2022-12-07T06:24:47;47.67;;;23.10;;
5690;SDS011;2870;42.680;23.364;2022-12-07T06:27:14;46.10;;;22.83;;
5690;SDS011;2870;42.680;23.364;2022-12-07T06:29:41;54.37;;;23.70;;
5690;SDS011;2870;42.680;23.364;2022-12-07T06:32:08;41.70;;;21.07;;
5690;SDS011;2870;42.680;23.364;2022-12-07T06:34:36;41.30;;;21.50;;
5690;SDS011;2870;42.680;23.364;2022-12-07T06:37:03;38.03;;;21.37;;
5690;SDS011;2870;42.680;23.364;2022-12-07T06:39:30;58.40;;;33.67;;
5690;SDS011;2870;42.680;23.364;2022-12-07T06:41:58;44.37;;;22.77;;
5690;SDS011;2870;42.680;23.364;2022-12-07T06:44:25;50.13;;;21.77;;
5690;SDS011;2870;42.680;23.364;2022-12-07T06:46:52;42.07;;;23.10;;
5690;SDS011;2870;42.680;23.364;2022-12-07T06:49:19;50.50;;;23.77;;
5690;SDS011;2870;42.680;23.364;2022-12-07T06:51:47;38.47;;;20.33;;
5690;SDS011;2870;42.680;23.364;2022-12-07T06:54:14;45.17;;;20.97;;
5690;SDS011;2870;42.680;23.364;2022-12-07T06:56:42;46.97;;;20.10;;
5690;SDS011;2870;42.680;23.364;2022-12-07T06:59:09;49.47;;;20.40;;
5690;SDS011;2870;42.680;23.364;2022-12-07T07:01:36;36.70;;;19.57;;
5690;SDS011;2870;42.680;23.364;2022-12-07T07:04:03;39.20;;;21.17;;
5690;SDS011;2870;42.680;23.364;2022-12-07T07:06:30;37.90;;;20.83;;
5690;SDS011;2870;42.680;23.364;2022-12-07T07:08:59;44.17;;;21.10;;
5690;SDS011;2870;42.680;23.364;2022-12-07T07:11:26;33.70;;;19.57;;
5690;SDS011;2870;42.680;23.364;2022-12-07T07:13:53;38.47;;;19.53;;
5690;SDS011;2870;42.680;23.364;2022-12-07T07:16:22;40.87;;;20.37;;
5690;SDS011;2870;42.680;23.364;2022-12-07T07:18:49;44.37;;;21.20;;
5690;SDS011;2870;42.680;23.364;2022-12-07T07:21:16;47.90;;;20.20;;
5690;SDS011;2870;42.680;23.364;2022-12-07T07:23:43;46.63;;;20.83;;
5690;SDS011;2870;42.680;23.364;2022-12-07T07:26:11;35.80;;;20.67;;
5690;SDS011;2870;42.680;23.364;2022-12-07T07:28:38;50.30;;;20.27;;
5690;SDS011;2870;42.680;23.364;2022-12-07T07:31:05;44.90;;;21.70;;
5690;SDS011;2870;42.680;23.364;2022-12-07T07:33:32;42.17;;;21.40;;
5690;SDS011;2870;42.680;23.364;2022-12-07T07:35:59;51.47;;;23.63;;
5690;SDS011;2870;42.680;23.364;2022-12-07T07:38:25;49.30;;;25.70;;
5690;SDS011;2870;42.680;23.364;2022-12-07T07:40:52;46.73;;;22.23;;
5690;SDS011;2870;42.680;23.364;2022-12-07T07:43:20;56.10;;;27.07;;
5690;SDS011;2870;42.680;23.364;2022-12-07T07:45:47;43.00;;;23.07;;
5690;SDS011;2870;42.680;23.364;2022-12-07T07:48:14;44.27;;;23.90;;
5690;SDS011;2870;42.680;23.364;2022-12-07T07:50:41;51.03;;;25.07;;
5690;SDS011;2870;42.680;23.364;2022-12-07T07:53:08;48.27;;;27.30;;
5690;SDS011;2870;42.680;23.364;2022-12-07T07:55:34;48.03;;;25.53;;
5690;SDS011;2870;42.680;23.364;2022-12-07T07:58:01;47.10;;;26.97;;
5690;SDS011;2870;42.680;23.364;2022-12-07T08:00:29;57.43;;;27.77;;
5690;SDS011;2870;42.680;23.364;2022-12-07T08:02:56;39.27;;;22.60;;
5690;SDS011;2870;42.680;23.364;2022-12-07T08:05:24;52.93;;;27.70;;
5690;SDS011;2870;42.680;23.364;2022-12-07T08:07:51;58.93;;;29.43;;
5690;SDS011;2870;42.680;23.364;2022-12-07T08:10:17;55.63;;;29.57;;
5690;SDS011;2870;42.680;23.364;2022-12-07T08:12:44;48.27;;;27.27;;
5690;SDS011;2870;42.680;23.364;2022-12-07T08:15:30;54.40;;;25.47;;
5690;SDS011;2870;42.680;23.364;2022-12-07T08:17:57;51.63;;;26.93;;
5690;SDS011;2870;42.680;23.364;2022-12-07T08:20:24;50.47;;;27.30;;
5690;SDS011;2870;42.680;23.364;2022-12-07T08:22:51;52.23;;;25.00;;
5690;SDS011;2870;42.680;23.364;2022-12-07T08:25:18;58.83;;;26.93;;
5690;SDS011;2870;42.680;23.364;2022-12-07T08:27:45;46.00;;;26.03;;
5690;SDS011;2870;42.680;23.364;2022-12-07T08:30:12;58.97;;;26.17;;
5690;SDS011;2870;42.680;23.364;2022-12-07T08:32:40;43.93;;;25.23;;
5690;SDS011;2870;42.680;23.364;2022-12-07T08:35:07;43.00;;;24.67;;
5690;SDS011;2870;42.680;23.364;2022-12-07T08:37:34;47.63;;;23.20;;
5690;SDS011;2870;42.680;23.364;2022-12-07T08:40:01;49.30;;;23.30;;
5690;SDS011;2870;42.680;23.364;2022-12-07T08:42:28;50.67;;;25.00;;
5690;SDS011;2870;42.680;23.364;2022-12-07T08:45:02;49.80;;;27.53;;
5690;SDS011;2870;42.680;23.364;2022-12-07T08:47:30;50.20;;;26.40;;
5690;SDS011;2870;42.680;23.364;2022-12-07T08:49:59;55.63;;;28.13;;
5690;SDS011;2870;42.680;23.364;2022-12-07T08:52:28;57.13;;;28.20;;
5690;SDS011;2870;42.680;23.364;2022-12-07T08:54:56;58.03;;;28.23;;
5690;SDS011;2870;42.680;23.364;2022-12-07T08:57:23;49.40;;;29.07;;
5690;SDS011;2870;42.680;23.364;2022-12-07T08:59:50;55.43;;;29.70;;
5690;SDS011;2870;42.680;23.364;2022-12-07T09:02:17;57.37;;;30.77;;
5690;SDS011;2870;42.680;23.364;2022-12-07T09:04:44;51.30;;;32.03;;
5690;SDS011;2870;42.680;23.364;2022-12-07T09:07:12;67.90;;;30.90;;
5690;SDS011;2870;42.680;23.364;2022-12-07T09:09:39;58.57;;;31.50;;
5690;SDS011;2870;42.680;23.364;2022-12-07T09:12:06;57.73;;;30.57;;
5690;SDS011;2870;42.680;23.364;2022-12-07T09:14:33;71.20;;;34.20;;
5690;SDS011;2870;42.680;23.364;2022-12-07T09:17:10;55.97;;;31.40;;
5690;SDS011;2870;42.680;23.364;2022-12-07T09:19:38;59.43;;;30.60;;
5690;SDS011;2870;42.680;23.364;2022-12-07T09:22:06;56.57;;;31.63;;
5690;SDS011;2870;42.680;23.364;2022-12-07T09:24:34;62.53;;;27.97;;
5690;SDS011;2870;42.680;23.364;2022-12-07T09:27:01;45.60;;;26.30;;
5690;SDS011;2870;42.680;23.364;2022-12-07T09:29:28;44.00;;;25.90;;
5690;SDS011;2870;42.680;23.364;2022-12-07T09:31:55;54.00;;;28.37;;
5690;SDS011;2870;42.680;23.364;2022-12-07T09:34:21;47.37;;;25.53;;
5690;SDS011;2870;42.680;23.364;2022-12-07T09:36:48;52.00;;;27.87;;
5690;SDS011;2870;42.680;23.364;2022-12-07T09:39:15;55.10;;;29.20;;
5690;SDS011;2870;42.680;23.364;2022-12-07T09:41:44;50.30;;;27.47;;
5690;SDS011;2870;42.680;23.364;2022-12-07T09:44:12;45.10;;;26.20;;
5690;SDS011;2870;42.680;23.364;2022-12-07T09:46:43;45.17;;;26.50;;
5690;SDS011;2870;42.680;23.364;2022-12-07T09:49:12;54.20;;;26.37;;
5690;SDS011;2870;42.680;23.364;2022-12-07T09:51:42;45.33;;;26.80;;
5690;SDS011;2870;42.680;23.364;2022-12-07T09:54:11;57.17;;;27.13;;
5690;SDS011;2870;42.680;23.364;2022-12-07T09:56:39;56.83;;;26.73;;
5690;SDS011;2870;42.680;23.364;2022-12-07T09:59:12;47.80;;;25.60;;
5690;SDS011;2870;42.680;23.364;2022-12-07T10:01:42;49.23;;;26.90;;
5690;SDS011;2870;42.680;23.364;2022-12-07T10:04:12;53.20;;;26.90;;
5690;SDS011;2870;42.680;23.364;2022-12-07T10:06:41;52.10;;;27.23;;
5690;SDS011;2870;42.680;23.364;2022-12-07T10:09:09;46.83;;;27.90;;
5690;SDS011;2870;42.680;23.364;2022-12-07T10:14:27;45.13;;;25.77;;
5690;SDS011;2870;42.680;23.364;2022-12-07T10:16:56;55.83;;;23.33;;
5690;SDS011;2870;42.680;23.364;2022-12-07T10:19:23;50.87;;;26.10;;
5690;SDS011;2870;42.680;23.364;2022-12-07T10:22:11;51.83;;;23.90;;
5690;SDS011;2870;42.680;23.364;2022-12-07T10:24:40;40.43;;;23.27;;
5690;SDS011;2870;42.680;23.364;2022-12-07T10:27:16;48.50;;;25.03;;
5690;SDS011;2870;42.680;23.364;2022-12-07T10:29:51;48.93;;;24.80;;
5690;SDS011;2870;42.680;23.364;2022-12-07T10:32:30;46.37;;;22.53;;
5690;SDS011;2870;42.680;23.364;2022-12-07T10:35:18;42.93;;;23.63;;
5690;SDS011;2870;42.680;23.364;2022-12-07T10:37:46;46.43;;;23.97;;
5690;SDS011;2870;42.680;23.364;2022-12-07T10:40:23;50.37;;;23.17;;
5690;SDS011;2870;42.680;23.364;2022-12-07T10:43:05;42.70;;;22.70;;
5690;SDS011;2870;42.680;23.364;2022-12-07T10:45:55;43.07;;;23.70;;
5690;SDS011;2870;42.680;23.364;2022-12-07T10:48:37;41.70;;;23.90;;
5690;SDS011;2870;42.680;23.364;2022-12-07T10:51:15;41.50;;;22.90;;
5690;SDS011;2870;42.680;23.364;2022-12-07T10:53:53;40.53;;;23.30;;
5690;SDS011;2870;42.680;23.364;2022-12-07T10:59:47;47.67;;;23.53;;
5690;SDS011;2870;42.680;23.364;2022-12-07T11:02:34;39.67;;;23.77;;
5690;SDS011;2870;42.680;23.364;2022-12-07T11:05:14;42.40;;;24.40;;
5690;SDS011;2870;42.680;23.364;2022-12-07T11:07:51;47.97;;;23.50;;
5690;SDS011;2870;42.680;23.364;2022-12-07T11:10:28;43.40;;;22.17;;
5690;SDS011;2870;42.680;23.364;2022-12-07T11:13:11;36.50;;;19.67;;
5690;SDS011;2870;42.680;23.364;2022-12-07T11:15:55;33.30;;;18.57;;
5690;SDS011;2870;42.680;23.364;2022-12-07T11:18:34;28.83;;;17.27;;
5690;SDS011;2870;42.680;23.364;2022-12-07T11:21:12;35.30;;;16.57;;
5690;SDS011;2870;42.680;23.364;2022-12-07T11:23:46;35.63;;;18.77;;
5690;SDS011;2870;42.680;23.364;2022-12-07T11:26:22;34.17;;;17.50;;
5690;SDS011;2870;42.680;23.364;2022-12-07T11:29:08;30.67;;;18.13;;
5690;SDS011;2870;42.680;23.364;2022-12-07T11:31:51;24.50;;;15.70;;
5690;SDS011;2870;42.680;23.364;2022-12-07T11:34:35;30.87;;;16.90;;
5690;SDS011;2870;42.680;23.364;2022-12-07T11:37:11;34.97;;;17.90;;
5690;SDS011;2870;42.680;23.364;2022-12-07T11:39:43;32.63;;;16.97;;
5690;SDS011;2870;42.680;23.364;2022-12-07T11:42:16;32.03;;;16.80;;
5690;SDS011;2870;42.680;23.364;2022-12-07T11:44:49;31.63;;;16.90;;
5690;SDS011;2870;42.680;23.364;2022-12-07T11:47:21;35.57;;;16.20;;
5690;SDS011;2870;42.680;23.364;2022-12-07T11:49:56;22.97;;;14.50;;
5690;SDS011;2870;42.680;23.364;2022-12-07T11:52:30;24.77;;;12.77;;
5690;SDS011;2870;42.680;23.364;2022-12-07T11:55:14;25.77;;;12.87;;
5690;SDS011;2870;42.680;23.364;2022-12-07T11:57:48;30.07;;;13.80;;
5690;SDS011;2870;42.680;23.364;2022-12-07T12:00:22;28.47;;;14.57;;
5690;SDS011;2870;42.680;23.364;2022-12-07T12:02:51;26.37;;;13.73;;
5690;SDS011;2870;42.680;23.364;2022-12-07T12:05:26;24.90;;;13.90;;
5690;SDS011;2870;42.680;23.364;2022-12-07T12:07:56;24.13;;;13.30;;
5690;SDS011;2870;42.680;23.364;2022-12-07T12:10:32;27.63;;;14.23;;
5690;SDS011;2870;42.680;23.364;2022-12-07T12:13:12;37.20;;;15.57;;
5690;SDS011;2870;42.680;23.364;2022-12-07T12:15:57;35.63;;;15.17;;
5690;SDS011;2870;42.680;23.364;2022-12-07T12:18:40;26.83;;;15.70;;
5690;SDS011;2870;42.680;23.364;2022-12-07T12:21:21;36.63;;;16.57;;
5690;SDS011;2870;42.680;23.364;2022-12-07T12:23:55;33.00;;;16.93;;
5690;SDS011;2870;42.680;23.364;2022-12-07T12:26:25;31.17;;;15.30;;
5690;SDS011;2870;42.680;23.364;2022-12-07T12:28:54;36.57;;;16.03;;
5690;SDS011;2870;42.680;23.364;2022-12-07T12:31:34;31.57;;;15.07;;
5690;SDS011;2870;42.680;23.364;2022-12-07T12:34:11;33.60;;;15.30;;
5690;SDS011;2870;42.680;23.364;2022-12-07T12:37:17;44.20;;;16.77;;
5690;SDS011;2870;42.680;23.364;2022-12-07T12:55:18;28.70;;;15.40;;
5690;SDS011;2870;42.680;23.364;2022-12-07T13:04:12;36.67;;;14.70;;
5690;SDS011;2870;42.680;23.364;2022-12-07T13:06:55;27.53;;;15.23;;
5690;SDS011;2870;42.680;23.364;2022-12-07T13:09:24;24.60;;;14.43;;
5690;SDS011;2870;42.680;23.364;2022-12-07T13:11:55;35.87;;;14.97;;
5690;SDS011;2870;42.680;23.364;2022-12-07T13:18:03;28.40;;;14.03;;
5690;SDS011;2870;42.680;23.364;2022-12-07T13:20:50;25.70;;;15.70;;
5690;SDS011;2870;42.680;23.364;2022-12-07T13:23:22;30.83;;;14.53;;
5690;SDS011;2870;42.680;23.364;2022-12-07T13:25:53;22.27;;;13.27;;
5690;SDS011;2870;42.680;23.364;2022-12-07T13:28:23;29.23;;;15.20;;
5690;SDS011;2870;42.680;23.364;2022-12-07T13:30:58;36.60;;;14.03;;
5690;SDS011;2870;42.680;23.364;2022-12-07T13:33:30;31.30;;;14.07;;
5690;SDS011;2870;42.680;23.364;2022-12-07T13:36:00;25.17;;;13.80;;
5690;SDS011;2870;42.680;23.364;2022-12-07T13:38:28;32.03;;;15.33;;
5690;SDS011;2870;42.680;23.364;2022-12-07T13:41:11;25.03;;;14.83;;
5690;SDS011;2870;42.680;23.364;2022-12-07T13:43:43;25.77;;;12.13;;
5690;SDS011;2870;42.680;23.364;2022-12-07T13:46:11;24.63;;;12.97;;
5690;SDS011;2870;42.680;23.364;2022-12-07T13:48:43;31.97;;;14.53;;
5690;SDS011;2870;42.680;23.364;2022-12-07T13:51:16;28.20;;;14.07;;
5690;SDS011;2870;42.680;23.364;2022-12-07T13:53:46;28.37;;;15.00;;
5690;SDS011;2870;42.680;23.364;2022-12-07T13:56:15;36.30;;;15.13;;
5690;SDS011;2870;42.680;23.364;2022-12-07T13:58:42;33.30;;;13.77;;
5690;SDS011;2870;42.680;23.364;2022-12-07T14:01:09;39.80;;;13.13;;
5690;SDS011;2870;42.680;23.364;2022-12-07T14:03:38;23.10;;;14.00;;
5690;SDS011;2870;42.680;23.364;2022-12-07T14:06:16;21.07;;;12.80;;
5690;SDS011;2870;42.680;23.364;2022-12-07T14:08:44;26.63;;;14.60;;
5690;SDS011;2870;42.680;23.364;2022-12-07T14:11:16;25.30;;;14.00;;
5690;SDS011;2870;42.680;23.364;2022-12-07T14:13:56;32.13;;;13.70;;
5690;SDS011;2870;42.680;23.364;2022-12-07T14:16:28;29.63;;;14.53;;
5690;SDS011;2870;42.680;23.364;2022-12-07T14:18:57;29.40;;;14.23;;
5690;SDS011;2870;42.680;23.364;2022-12-07T14:21:26;19.80;;;12.60;;
5690;SDS011;2870;42.680;23.364;2022-12-07T14:24:08;35.10;;;15.10;;
5690;SDS011;2870;42.680;23.364;2022-12-07T14:26:38;35.53;;;15.03;;
5690;SDS011;2870;42.680;23.364;2022-12-07T14:32:14;32.60;;;15.20;;
5690;SDS011;2870;42.680;23.364;2022-12-07T14:34:59;35.30;;;16.30;;
5690;SDS011;2870;42.680;23.364;2022-12-07T14:37:27;26.40;;;13.47;;
5690;SDS011;2870;42.680;23.364;2022-12-07T14:39:55;34.10;;;14.87;;
5690;SDS011;2870;42.680;23.364;2022-12-07T14:42:26;29.30;;;14.97;;
5690;SDS011;2870;42.680;23.364;2022-12-07T14:44:54;26.83;;;13.73;;
5690;SDS011;2870;42.680;23.364;2022-12-07T14:47:22;32.47;;;16.40;;
5690;SDS011;2870;42.680;23.364;2022-12-07T14:49:49;27.70;;;17.23;;
5690;SDS011;2870;42.680;23.364;2022-12-07T14:52:17;30.57;;;16.70;;
5690;SDS011;2870;42.680;23.364;2022-12-07T14:54:47;33.93;;;16.57;;
5690;SDS011;2870;42.680;23.364;2022-12-07T14:57:14;33.20;;;16.80;;
5690;SDS011;2870;42.680;23.364;2022-12-07T14:59:42;31.10;;;15.70;;
5690;SDS011;2870;42.680;23.364;2022-12-07T15:02:09;35.47;;;17.63;;
5690;SDS011;2870;42.680;23.364;2022-12-07T15:04:37;32.50;;;17.97;;
5690;SDS011;2870;42.680;23.364;2022-12-07T15:07:05;35.50;;;18.97;;
5690;SDS011;2870;42.680;23.364;2022-12-07T15:09:37;35.43;;;18.43;;
5690;SDS011;2870;42.680;23.364;2022-12-07T15:12:04;50.03;;;18.67;;
5690;SDS011;2870;42.680;23.364;2022-12-07T15:14:31;42.47;;;21.10;;
5690;SDS011;2870;42.680;23.364;2022-12-07T15:16:59;31.83;;;18.73;;
5690;SDS011;2870;42.680;23.364;2022-12-07T15:19:26;42.63;;;19.97;;
5690;SDS011;2870;42.680;23.364;2022-12-07T15:21:53;32.47;;;16.50;;
5690;SDS011;2870;42.680;23.364;2022-12-07T15:24:20;35.77;;;19.20;;
5690;SDS011;2870;42.680;23.364;2022-12-07T15:26:49;33.87;;;17.57;;
5690;SDS011;2870;42.680;23.364;2022-12-07T15:29:16;39.30;;;20.30;;